Time;durP1;ratioP1;P1;durP2;ratioP2;P2;SDS_P1;SDS_P2;PMS_P1;PMS_P2;Temp;Humidity;BMP_temperature;BMP_pressure;BME280_temperature;BME280_humidity;BME280_pressure;Samples;Min_cycle;Max_cycle;Signal;HPM_P1;HPM_P2
2021/11/14 00:02:03;;;;;;;;;;;;;;;6.69;95.81;100456.48;1625957;88;20770;-80
2021/11/14 00:04:29;;;;;;;;;;;;;;;6.75;95.67;100453.38;1627870;87;20253;-79
2021/11/14 00:06:55;;;;;;;;;;;;;;;6.82;95.50;100451.44;1630016;86;21122;-78
2021/11/14 00:09:20;;;;;;;;;;;;;;;6.83;95.58;100460.95;1604333;88;20148;-78
2021/11/14 00:11:46;;;;;;;;;;;;;;;6.82;95.92;100454.52;1625285;87;20133;-78
2021/11/14 00:14:11;;;;;;;;;;;;;;;6.80;95.95;100459.89;1629584;86;20154;-79
2021/11/14 00:16:38;;;;;;;;;;;;;;;6.86;96.20;100457.75;1603388;89;20192;-79
2021/11/14 00:19:03;;;;;;;;;;;;;;;6.81;96.44;100458.13;1631706;86;20982;-77
2021/11/14 00:21:29;;;;;;;;;;;;;;;6.83;96.67;100459.65;1625884;87;20242;-81
2021/11/14 00:23:55;;;;;;;;;;;;;;;6.87;96.61;100463.34;1631392;86;20700;-78
2021/11/14 00:26:21;;;;;;;;;;;;;;;6.90;96.21;100464.41;1625338;86;20219;-77
2021/11/14 00:28:47;;;;;;;;;;;;;;;6.92;96.54;100459.88;1626741;86;20233;-77
2021/11/14 00:31:13;;;;;;;;;;;;;;;7.05;96.29;100463.16;1632093;86;21182;-77
2021/11/14 00:33:42;;;;;;;;;;;;;;;7.16;95.78;100465.75;1629860;86;20199;-77
2021/11/14 00:36:08;;;;;;;;;;;;;;;7.25;95.22;100467.26;1611573;87;20158;-78
2021/11/14 00:38:33;;;;;;;;;;;;;;;7.34;94.67;100467.81;1651047;86;20133;-82
2021/11/14 00:40:59;;;;;;;;;;;;;;;7.38;94.42;100471.86;1644322;86;20149;-81
2021/11/14 00:43:24;;;;;;;;;;;;;;;7.48;94.24;100464.86;1643665;86;21283;-79
2021/11/14 00:45:50;;;;;;;;;;;;;;;7.51;93.79;100471.17;1650636;86;20268;-78
2021/11/14 00:48:16;;;;;;;;;;;;;;;7.57;93.65;100470.30;1644795;86;20194;-78
2021/11/14 00:50:45;;;;;;;;;;;;;;;7.61;93.13;100473.86;1643954;86;20210;-79
2021/11/14 00:53:15;;;;;;;;;;;;;;;7.62;92.55;100476.84;1647358;86;20494;-79
2021/11/14 00:55:40;;;;;;;;;;;;;;;7.59;92.54;100474.97;1636934;86;22156;-76
2021/11/14 00:58:06;;;;;;;;;;;;;;;7.67;92.54;100469.39;1630206;87;20286;-77
2021/11/14 01:00:33;;;;;;;;;;;;;;;7.74;92.29;100480.25;1630833;86;20204;-77
2021/11/14 01:02:58;;;;;;;;;;;;;;;7.76;91.86;100469.11;1636640;86;20800;-76
2021/11/14 01:05:24;;;;;;;;;;;;;;;7.74;91.64;100469.73;1635597;87;20130;-77
2021/11/14 01:07:50;;;;;;;;;;;;;;;7.68;91.84;100471.56;1629194;86;20912;-77
2021/11/14 01:10:18;;;;;;;;;;;;;;;7.71;91.89;100469.99;1635617;87;20177;-76
2021/11/14 01:12:44;;;;;;;;;;;;;;;7.66;91.84;100470.38;1627418;86;20213;-79
2021/11/14 01:15:10;;;;;;;;;;;;;;;7.69;91.79;100467.95;1628576;87;20810;-76
2021/11/14 01:17:38;;;;;;;;;;;;;;;7.73;91.70;100473.31;1632558;87;20169;-76
2021/11/14 01:20:03;;;;;;;;;;;;;;;7.78;91.60;100471.12;1632641;87;21036;-78
2021/11/14 01:22:29;;;;;;;;;;;;;;;7.72;91.44;100469.01;1633210;86;20538;-78
2021/11/14 01:24:54;;;;;;;;;;;;;;;7.74;91.42;100471.05;1633947;86;20779;-78
2021/11/14 01:27:21;;;;;;;;;;;;;;;7.79;91.20;100472.80;1633966;86;21511;-78
2021/11/14 01:29:47;;;;;;;;;;;;;;;7.77;91.13;100473.41;1633328;87;20494;-80
2021/11/14 01:32:13;;;;;;;;;;;;;;;7.82;91.25;100480.42;1634421;86;21083;-78
2021/11/14 01:34:38;;;;;;;;;;;;;;;7.82;91.11;100481.73;1629315;87;20617;-76
2021/11/14 01:37:04;;;;;;;;;;;;;;;7.84;90.83;100474.54;1631435;86;20146;-77
2021/11/14 01:39:31;;;;;;;;;;;;;;;7.89;90.79;100478.09;1630735;86;20159;-77
2021/11/14 01:41:59;;;;;;;;;;;;;;;7.85;90.82;100480.16;1635719;86;20155;-79
2021/11/14 01:44:24;;;;;;;;;;;;;;;7.88;90.69;100485.16;1631303;86;21111;-77
2021/11/14 01:46:51;;;;;;;;;;;;;;;7.84;90.75;100479.80;1631990;86;20178;-78
2021/11/14 01:49:16;;;;;;;;;;;;;;;7.86;90.73;100477.04;1630546;87;20504;-80
2021/11/14 01:51:42;;;;;;;;;;;;;;;7.87;90.67;100485.30;1634202;87;20224;-78
2021/11/14 01:54:08;;;;;;;;;;;;;;;7.84;90.75;100486.38;1634127;87;20198;-77
2021/11/14 01:56:33;;;;;;;;;;;;;;;7.86;90.66;100493.67;1642400;86;21250;-78
2021/11/14 01:58:59;;;;;;;;;;;;;;;7.85;90.33;100486.73;1649346;85;20183;-77
2021/11/14 02:01:27;;;;;;;;;;;;;;;7.89;90.15;100492.09;1642906;86;20168;-78
2021/11/14 02:03:55;;;;;;;;;;;;;;;7.91;90.24;100493.28;1642385;86;20700;-76
2021/11/14 02:06:23;;;;;;;;;;;;;;;7.83;90.00;100497.02;1646051;85;20139;-76
2021/11/14 02:08:49;;;;;;;;;;;;;;;7.73;90.18;100495.66;1649475;85;20991;-77
2021/11/14 02:11:16;;;;;;;;;;;;;;;7.58;91.20;100490.38;1647268;86;20828;-77
2021/11/14 02:13:43;;;;;;;;;;;;;;;7.50;91.73;100491.86;1646629;86;20155;-77
2021/11/14 02:16:08;;;;;;;;;;;;;;;7.46;91.86;100490.44;1647265;86;20217;-79
2021/11/14 02:18:34;;;;;;;;;;;;;;;7.47;92.01;100495.20;1650663;84;20504;-80
2021/11/14 02:20:59;;;;;;;;;;;;;;;7.42;91.85;100496.90;1647584;85;21941;-77
2021/11/14 02:23:25;;;;;;;;;;;;;;;7.34;92.30;100499.34;1646983;86;20172;-77
2021/11/14 02:25:51;;;;;;;;;;;;;;;7.31;92.89;100492.53;1646093;85;20193;-77
2021/11/14 02:28:17;;;;;;;;;;;;;;;7.36;92.70;100501.35;1643498;86;20178;-77
2021/11/14 02:30:43;;;;;;;;;;;;;;;7.37;92.89;100496.45;1645449;86;20184;-80
2021/11/14 02:33:09;;;;;;;;;;;;;;;7.14;93.06;100500.48;1647491;86;21089;-77
2021/11/14 02:35:34;;;;;;;;;;;;;;;7.09;93.45;100502.66;1649748;86;20160;-77
2021/11/14 02:38:00;;;;;;;;;;;;;;;6.96;93.90;100500.66;1644540;86;20149;-77
2021/11/14 02:40:26;;;;;;;;;;;;;;;6.87;94.82;100506.66;1644004;86;20125;-76
2021/11/14 02:42:51;;;;;;;;;;;;;;;6.76;95.26;100505.74;1649804;86;20201;-76
2021/11/14 02:45:19;;;;;;;;;;;;;;;6.83;95.35;100504.27;1648945;85;21112;-76
2021/11/14 02:47:45;;;;;;;;;;;;;;;6.95;95.15;100509.03;1647189;86;20212;-76
2021/11/14 02:50:11;;;;;;;;;;;;;;;7.05;94.85;100511.73;1645434;86;20186;-78
2021/11/14 02:52:36;;;;;;;;;;;;;;;7.12;94.46;100507.66;1649802;85;20141;-76
2021/11/14 02:55:03;;;;;;;;;;;;;;;7.23;94.05;100510.73;1645726;86;20500;-76
2021/11/14 02:57:29;;;;;;;;;;;;;;;7.31;93.73;100510.09;1639078;85;21105;-76
2021/11/14 02:59:55;;;;;;;;;;;;;;;7.30;93.55;100517.61;1635957;87;20471;-76
2021/11/14 03:02:21;;;;;;;;;;;;;;;7.32;92.94;100517.03;1630355;86;20271;-76
2021/11/14 03:04:46;;;;;;;;;;;;;;;7.35;92.62;100520.72;1634970;87;20239;-76
2021/11/14 03:07:12;;;;;;;;;;;;;;;7.29;92.42;100522.53;1631911;86;20456;-76
2021/11/14 03:09:38;;;;;;;;;;;;;;;7.35;92.51;100524.66;1633380;87;21056;-77
2021/11/14 03:12:04;;;;;;;;;;;;;;;7.34;92.29;100518.55;1635199;86;20130;-76
2021/11/14 03:14:30;;;;;;;;;;;;;;;7.24;92.47;100522.91;1631362;87;20174;-77
2021/11/14 03:16:56;;;;;;;;;;;;;;;7.29;92.17;100528.61;1630832;87;20208;-77
2021/11/14 03:19:21;;;;;;;;;;;;;;;7.16;92.30;100525.30;1631868;86;20155;-78
2021/11/14 03:21:48;;;;;;;;;;;;;;;7.18;92.41;100532.11;1634012;87;21134;-76
2021/11/14 03:24:14;;;;;;;;;;;;;;;7.24;92.48;100529.94;1628794;86;20199;-76
2021/11/14 03:26:40;;;;;;;;;;;;;;;7.31;92.30;100531.11;1631577;86;20227;-77
2021/11/14 03:29:05;;;;;;;;;;;;;;;7.26;92.14;100534.12;1627869;86;20732;-76
2021/11/14 03:31:31;;;;;;;;;;;;;;;7.31;92.12;100535.05;1632007;86;20122;-77
2021/11/14 03:33:57;;;;;;;;;;;;;;;7.39;92.04;100528.69;1634918;87;21156;-76
2021/11/14 03:36:23;;;;;;;;;;;;;;;7.33;91.57;100533.98;1632825;87;20151;-73
2021/11/14 03:38:51;;;;;;;;;;;;;;;7.43;91.74;100532.73;1633712;87;20252;-76
2021/11/14 03:41:23;;;;;;;;;;;;;;;7.46;91.30;100535.11;1635532;86;20197;-77
2021/11/14 03:43:48;;;;;;;;;;;;;;;7.45;90.95;100538.69;1629412;87;20184;-76
2021/11/14 03:46:14;;;;;;;;;;;;;;;7.53;90.93;100538.87;1637247;86;21818;-76
2021/11/14 03:48:41;;;;;;;;;;;;;;;7.52;90.58;100544.30;1636725;86;20126;-76
2021/11/14 03:51:07;;;;;;;;;;;;;;;7.45;90.50;100551.00;1635695;86;20138;-79
2021/11/14 03:53:33;;;;;;;;;;;;;;;7.34;90.44;100546.63;1633186;86;20243;-75
2021/11/14 03:55:58;;;;;;;;;;;;;;;7.29;90.91;100547.00;1634774;86;20147;-75
2021/11/14 03:58:24;;;;;;;;;;;;;;;7.27;91.00;100549.39;1640870;86;21133;-75
2021/11/14 04:00:53;;;;;;;;;;;;;;;7.31;91.16;100546.88;1641906;86;20473;-75
2021/11/14 04:03:19;;;;;;;;;;;;;;;7.41;91.08;100554.38;1640953;86;20465;-75
2021/11/14 04:05:44;;;;;;;;;;;;;;;7.38;91.03;100557.25;1635242;86;20159;-79
2021/11/14 04:08:15;;;;;;;;;;;;;;;7.40;91.08;100552.70;1647156;85;20296;-77
2021/11/14 04:10:42;;;;;;;;;;;;;;;7.37;91.03;100555.57;1638145;86;21271;-80
2021/11/14 04:13:07;;;;;;;;;;;;;;;7.22;91.60;100555.50;1639620;86;20149;-76
2021/11/14 04:15:33;;;;;;;;;;;;;;;7.11;92.04;100554.56;1647899;86;20230;-77
2021/11/14 04:17:58;;;;;;;;;;;;;;;6.97;92.70;100556.16;1645440;86;20812;-78
2021/11/14 04:20:25;;;;;;;;;;;;;;;6.95;93.18;100562.02;1645111;86;20152;-80
2021/11/14 04:22:51;;;;;;;;;;;;;;;6.90;93.43;100567.64;1639779;86;21018;-77
2021/11/14 04:25:17;;;;;;;;;;;;;;;6.87;93.92;100568.34;1641026;86;20182;-77
2021/11/14 04:27:42;;;;;;;;;;;;;;;6.94;94.00;100576.09;1643173;86;20134;-77
2021/11/14 04:30:08;;;;;;;;;;;;;;;6.97;93.71;100565.36;1649072;86;20137;-78
2021/11/14 04:32:34;;;;;;;;;;;;;;;7.03;93.60;100574.55;1650876;86;20845;-79
2021/11/14 04:34:59;;;;;;;;;;;;;;;7.14;93.42;100574.51;1643971;86;21173;-77
2021/11/14 04:37:25;;;;;;;;;;;;;;;7.27;92.87;100576.97;1644430;86;20619;-77
2021/11/14 04:39:50;;;;;;;;;;;;;;;7.26;92.62;100574.02;1639135;84;20181;-78
2021/11/14 04:42:16;;;;;;;;;;;;;;;7.21;92.54;100582.72;1639947;86;20118;-81
2021/11/14 04:44:41;;;;;;;;;;;;;;;7.15;92.64;100584.89;1636985;86;20600;-78
2021/11/14 04:47:07;;;;;;;;;;;;;;;7.17;92.67;100582.97;1626163;87;21103;-78
2021/11/14 04:49:33;;;;;;;;;;;;;;;7.06;92.92;100580.38;1623643;87;20482;-77
2021/11/14 04:51:58;;;;;;;;;;;;;;;7.18;92.95;100586.45;1622976;85;20148;-78
2021/11/14 04:54:24;;;;;;;;;;;;;;;7.21;92.51;100590.59;1624011;87;20173;-80
2021/11/14 04:56:50;;;;;;;;;;;;;;;7.27;92.41;100590.11;1626557;86;20313;-77
2021/11/14 04:59:15;;;;;;;;;;;;;;;7.30;91.92;100592.48;1642953;86;21064;-79
2021/11/14 05:01:41;;;;;;;;;;;;;;;7.38;91.99;100590.09;1611288;88;20140;-78
2021/11/14 05:04:06;;;;;;;;;;;;;;;7.46;91.61;100595.55;1625569;86;20143;-76
2021/11/14 05:06:32;;;;;;;;;;;;;;;7.47;91.36;100599.86;1615690;87;20529;-76
2021/11/14 05:08:58;;;;;;;;;;;;;;;7.53;91.27;100595.38;1613193;88;20212;-76
2021/11/14 05:11:23;;;;;;;;;;;;;;;7.51;90.85;100597.80;1592214;88;21105;-76
2021/11/14 05:13:49;;;;;;;;;;;;;;;7.58;90.81;100602.07;1636666;86;20490;-78
2021/11/14 05:16:15;;;;;;;;;;;;;;;7.62;90.72;100607.44;1641051;86;20173;-79
2021/11/14 05:18:40;;;;;;;;;;;;;;;7.61;90.59;100616.27;1610182;87;20120;-76
2021/11/14 05:21:07;;;;;;;;;;;;;;;7.42;90.79;100609.88;1613896;87;20162;-77
2021/11/14 05:23:33;;;;;;;;;;;;;;;7.30;91.58;100609.10;1627584;86;21142;-76
2021/11/14 05:25:58;;;;;;;;;;;;;;;7.40;91.61;100614.93;1595883;88;20326;-82
2021/11/14 05:28:24;;;;;;;;;;;;;;;7.34;91.64;100614.94;1642511;85;20142;-77
2021/11/14 05:30:49;;;;;;;;;;;;;;;7.22;92.20;100623.80;1644205;86;20808;-81
2021/11/14 05:33:15;;;;;;;;;;;;;;;7.18;92.82;100625.36;1646340;86;20147;-78
2021/11/14 05:35:41;;;;;;;;;;;;;;;7.31;92.77;100624.38;1642026;87;21152;-81
2021/11/14 05:38:06;;;;;;;;;;;;;;;7.42;92.36;100623.02;1643876;86;20240;-77
2021/11/14 05:40:33;;;;;;;;;;;;;;;7.43;91.74;100627.33;1644510;86;20698;-77
2021/11/14 05:42:58;;;;;;;;;;;;;;;7.23;92.43;100637.30;1642094;86;20151;-79
2021/11/14 05:45:24;;;;;;;;;;;;;;;7.35;92.30;100642.89;1644675;86;20157;-78
2021/11/14 05:47:50;;;;;;;;;;;;;;;7.22;92.48;100638.25;1641693;87;21128;-78
2021/11/14 05:50:15;;;;;;;;;;;;;;;7.13;92.99;100643.73;1640025;86;20273;-78
2021/11/14 05:52:41;;;;;;;;;;;;;;;7.05;93.54;100650.91;1644746;86;20173;-78
2021/11/14 05:55:08;;;;;;;;;;;;;;;7.05;93.41;100649.59;1643005;86;20170;-78
2021/11/14 05:57:44;;;;;;;;;;;;;;;7.12;93.38;100653.42;1617420;87;20534;-78
2021/11/14 06:00:09;;;;;;;;;;;;;;;7.15;93.11;100653.17;1603111;88;20141;-80
2021/11/14 06:02:48;;;;;;;;;;;;;;;7.15;93.13;100652.35;1603951;88;20128;-78
2021/11/14 06:05:13;;;;;;;;;;;;;;;6.94;93.90;100649.61;1597202;88;20085;-78
2021/11/14 06:07:38;;;;;;;;;;;;;;;6.90;94.15;100665.23;1596070;87;21206;-78
2021/11/14 06:10:04;;;;;;;;;;;;;;;7.08;93.73;100661.17;1595889;88;20145;-80
2021/11/14 06:12:30;;;;;;;;;;;;;;;7.01;94.05;100666.57;1595389;90;21076;-77
2021/11/14 06:14:56;;;;;;;;;;;;;;;6.86;94.61;100675.64;1595790;89;20318;-77
2021/11/14 06:17:22;;;;;;;;;;;;;;;6.75;95.38;100672.53;1595348;90;20267;-77
2021/11/14 06:19:48;;;;;;;;;;;;;;;6.78;95.31;100676.23;1600633;88;20454;-78
2021/11/14 06:22:15;;;;;;;;;;;;;;;6.92;95.06;100685.67;1592406;88;20184;-78
2021/11/14 06:24:40;;;;;;;;;;;;;;;6.91;94.94;100687.44;1595302;89;21856;-78
2021/11/14 06:27:06;;;;;;;;;;;;;;;6.87;95.43;100683.85;1595087;90;20252;-77
2021/11/14 06:29:32;;;;;;;;;;;;;;;6.88;95.54;100693.41;1593222;90;20832;-77
2021/11/14 06:31:57;;;;;;;;;;;;;;;6.91;95.38;100692.69;1595184;88;20129;-77
2021/11/14 06:34:23;;;;;;;;;;;;;;;6.92;95.37;100694.86;1595979;88;20466;-78
2021/11/14 06:36:48;;;;;;;;;;;;;;;7.06;94.85;100701.17;1594440;89;21828;-78
2021/11/14 06:39:14;;;;;;;;;;;;;;;7.07;94.72;100697.60;1595652;88;20200;-78
2021/11/14 06:41:39;;;;;;;;;;;;;;;7.07;94.67;100696.75;1593997;89;20504;-78
2021/11/14 06:44:05;;;;;;;;;;;;;;;6.99;94.33;100695.58;1597100;88;20197;-78
2021/11/14 06:46:30;;;;;;;;;;;;;;;6.98;94.72;100707.02;1597321;88;20199;-79
2021/11/14 06:48:56;;;;;;;;;;;;;;;7.06;94.63;100698.55;1595646;88;21156;-79
2021/11/14 06:51:22;;;;;;;;;;;;;;;7.18;94.28;100713.34;1594380;90;20469;-78
2021/11/14 06:53:47;;;;;;;;;;;;;;;7.13;94.22;100718.59;1599488;88;20172;-79
2021/11/14 06:56:14;;;;;;;;;;;;;;;7.23;94.10;100716.10;1593752;88;20562;-78
2021/11/14 06:58:40;;;;;;;;;;;;;;;7.29;93.89;100718.25;1595311;88;20153;-78
2021/11/14 07:01:05;;;;;;;;;;;;;;;7.31;93.70;100727.66;1594450;90;21115;-78
2021/11/14 07:03:31;;;;;;;;;;;;;;;7.39;93.73;100721.80;1594160;89;20160;-79
2021/11/14 07:05:57;;;;;;;;;;;;;;;7.45;93.47;100722.63;1595401;88;20481;-79
2021/11/14 07:08:22;;;;;;;;;;;;;;;7.49;93.05;100731.95;1595097;89;20838;-78
2021/11/14 07:10:48;;;;;;;;;;;;;;;7.48;92.59;100736.84;1594652;89;20149;-79
2021/11/14 07:13:13;;;;;;;;;;;;;;;7.51;92.67;100744.48;1597511;88;21156;-82
2021/11/14 07:15:39;;;;;;;;;;;;;;;7.44;92.70;100747.26;1596750;88;20247;-78
2021/11/14 07:18:05;;;;;;;;;;;;;;;7.57;92.53;100743.62;1597958;88;20160;-78
2021/11/14 07:20:30;;;;;;;;;;;;;;;7.36;92.38;100754.42;1595630;90;20822;-78
2021/11/14 07:22:56;;;;;;;;;;;;;;;7.43;92.75;100753.45;1592997;88;20160;-77
2021/11/14 07:25:21;;;;;;;;;;;;;;;7.44;92.76;100756.91;1595855;90;21059;-78
2021/11/14 07:27:50;;;;;;;;;;;;;;;7.32;92.88;100754.30;1597825;88;20821;-76
2021/11/14 07:30:16;;;;;;;;;;;;;;;7.38;93.01;100760.88;1585658;89;20153;-78
2021/11/14 07:32:41;;;;;;;;;;;;;;;7.49;92.69;100760.86;1596227;88;20254;-80
2021/11/14 07:35:08;;;;;;;;;;;;;;;7.40;92.88;100762.89;1599371;88;20191;-76
2021/11/14 07:37:34;;;;;;;;;;;;;;;7.28;92.98;100762.54;1595673;88;21343;-78
2021/11/14 07:40:00;;;;;;;;;;;;;;;7.22;93.33;100776.15;1595057;89;20210;-76
2021/11/14 07:42:25;;;;;;;;;;;;;;;7.23;93.55;100762.07;1595968;88;20156;-79
2021/11/14 07:44:51;;;;;;;;;;;;;;;7.33;93.36;100766.49;1594907;88;20757;-79
2021/11/14 07:47:17;;;;;;;;;;;;;;;7.34;93.28;100772.57;1596215;88;20210;-77
2021/11/14 07:49:42;;;;;;;;;;;;;;;7.41;93.16;100770.29;1598332;88;21269;-77
2021/11/14 07:52:08;;;;;;;;;;;;;;;7.32;93.07;100771.86;1596585;88;20714;-77
2021/11/14 07:54:33;;;;;;;;;;;;;;;7.40;93.17;100771.27;1595669;89;20235;-77
2021/11/14 07:56:59;;;;;;;;;;;;;;;7.36;92.85;100774.59;1595323;88;20140;-76
2021/11/14 07:59:26;;;;;;;;;;;;;;;7.24;93.50;100779.48;1623599;88;20165;-80
2021/11/14 08:01:52;;;;;;;;;;;;;;;7.03;94.47;100781.50;1625480;86;21022;-78
2021/11/14 08:04:18;;;;;;;;;;;;;;;6.99;94.66;100782.69;1625102;86;20183;-79
2021/11/14 08:06:44;;;;;;;;;;;;;;;6.91;95.02;100787.69;1628547;86;20216;-79
2021/11/14 08:09:09;;;;;;;;;;;;;;;7.07;94.92;100786.89;1627368;86;20164;-76
2021/11/14 08:11:35;;;;;;;;;;;;;;;6.95;95.13;100789.97;1621118;87;20481;-77
2021/11/14 08:14:00;;;;;;;;;;;;;;;6.94;95.27;100795.33;1628382;86;21902;-79
2021/11/14 08:16:26;;;;;;;;;;;;;;;7.06;95.18;100796.20;1624945;86;20207;-76
2021/11/14 08:18:51;;;;;;;;;;;;;;;7.00;94.95;100799.63;1628210;87;20171;-75
2021/11/14 08:21:17;;;;;;;;;;;;;;;6.94;95.45;100801.90;1623886;88;20148;-75
2021/11/14 08:23:43;;;;;;;;;;;;;;;6.88;96.09;100802.36;1624241;86;20191;-75
2021/11/14 08:26:08;;;;;;;;;;;;;;;6.87;96.29;100811.18;1622104;86;21693;-79
2021/11/14 08:28:34;;;;;;;;;;;;;;;6.80;96.78;100809.02;1628135;86;20142;-77
2021/11/14 08:30:59;;;;;;;;;;;;;;;6.88;96.71;100811.55;1630603;88;20903;-78
2021/11/14 08:33:25;;;;;;;;;;;;;;;6.96;96.48;100818.36;1631593;87;20719;-76
2021/11/14 08:35:51;;;;;;;;;;;;;;;7.04;95.77;100819.09;1624293;88;20256;-77
2021/11/14 08:38:17;;;;;;;;;;;;;;;6.93;96.20;100825.16;1626605;86;21067;-76
2021/11/14 08:40:43;;;;;;;;;;;;;;;6.88;96.43;100828.62;1626397;86;20305;-76
2021/11/14 08:43:09;;;;;;;;;;;;;;;6.94;96.25;100822.91;1628975;86;20438;-77
2021/11/14 08:45:34;;;;;;;;;;;;;;;6.93;96.13;100835.66;1629332;88;20741;-77
2021/11/14 08:48:00;;;;;;;;;;;;;;;6.91;96.05;100833.64;1626114;86;20138;-77
2021/11/14 08:50:26;;;;;;;;;;;;;;;6.96;96.00;100831.49;1628686;86;21190;-76
2021/11/14 08:52:53;;;;;;;;;;;;;;;6.97;95.61;100838.42;1626289;86;20110;-77
2021/11/14 08:55:20;;;;;;;;;;;;;;;6.90;95.74;100840.69;1625386;88;20144;-78
2021/11/14 08:57:46;;;;;;;;;;;;;;;6.88;95.76;100846.99;1625947;85;20165;-78
2021/11/14 09:00:13;;;;;;;;;;;;;;;6.85;96.23;100853.78;1622639;88;20211;-77
2021/11/14 09:02:38;;;;;;;;;;;;;;;6.91;96.21;100852.02;1628125;86;21178;-81
2021/11/14 09:05:05;;;;;;;;;;;;;;;6.92;95.79;100849.27;1623078;88;20198;-79
2021/11/14 09:07:30;;;;;;;;;;;;;;;6.77;95.86;100853.87;1623128;86;20216;-76
2021/11/14 09:09:56;;;;;;;;;;;;;;;6.97;95.78;100850.24;1626454;86;20126;-76
2021/11/14 09:12:22;;;;;;;;;;;;;;;6.96;95.78;100852.50;1625325;86;20517;-77
2021/11/14 09:14:48;;;;;;;;;;;;;;;6.98;95.88;100853.24;1624006;88;21135;-79
2021/11/14 09:17:14;;;;;;;;;;;;;;;6.89;96.06;100860.49;1624621;86;20211;-77
2021/11/14 09:19:40;;;;;;;;;;;;;;;6.81;96.66;100858.44;1624051;87;20579;-77
2021/11/14 09:22:06;;;;;;;;;;;;;;;6.88;97.04;100856.19;1621354;88;20255;-76
2021/11/14 09:24:31;;;;;;;;;;;;;;;6.87;97.06;100857.98;1625388;88;20136;-78
2021/11/14 09:26:57;;;;;;;;;;;;;;;6.80;96.81;100855.44;1628730;86;21089;-78
2021/11/14 09:29:22;;;;;;;;;;;;;;;6.85;96.78;100862.48;1626365;86;20582;-78
2021/11/14 09:31:48;;;;;;;;;;;;;;;6.73;97.21;100860.32;1623998;86;20163;-78
2021/11/14 09:34:14;;;;;;;;;;;;;;;6.92;96.88;100873.39;1625136;87;20149;-78
2021/11/14 09:36:39;;;;;;;;;;;;;;;6.93;96.47;100868.48;1631546;85;20231;-79
2021/11/14 09:39:09;;;;;;;;;;;;;;;6.85;96.62;100868.23;1624182;86;21067;-78
2021/11/14 09:41:38;;;;;;;;;;;;;;;7.04;96.35;100873.78;1621036;86;20143;-78
2021/11/14 09:44:04;;;;;;;;;;;;;;;7.00;95.85;100881.52;1624779;86;20536;-78
2021/11/14 09:46:30;;;;;;;;;;;;;;;7.08;95.61;100873.89;1627632;86;20933;-78
2021/11/14 09:48:57;;;;;;;;;;;;;;;6.99;95.50;100876.76;1623325;88;20249;-78
2021/11/14 09:51:23;;;;;;;;;;;;;;;7.05;95.66;100879.38;1625690;88;21153;-77
2021/11/14 09:53:48;;;;;;;;;;;;;;;6.84;95.81;100880.52;1627308;86;20758;-79
2021/11/14 09:56:14;;;;;;;;;;;;;;;6.93;95.51;100881.61;1631978;86;20156;-80
2021/11/14 09:58:40;;;;;;;;;;;;;;;6.94;95.53;100884.61;1629133;87;20487;-78
2021/11/14 10:01:06;;;;;;;;;;;;;;;7.07;94.87;100889.31;1626834;87;20188;-79
2021/11/14 10:03:32;;;;;;;;;;;;;;;7.16;94.67;100890.39;1626294;86;21172;-79
2021/11/14 10:05:57;;;;;;;;;;;;;;;7.19;94.45;100892.33;1625118;86;20394;-79
2021/11/14 10:08:24;;;;;;;;;;;;;;;7.23;94.15;100898.67;1624368;87;20190;-79
2021/11/14 10:10:52;;;;;;;;;;;;;;;7.21;93.52;100893.98;1625667;88;20346;-79
2021/11/14 10:13:22;;;;;;;;;;;;;;;7.14;93.81;100901.02;1624514;86;20126;-78
2021/11/14 10:15:51;;;;;;;;;;;;;;;7.02;94.59;100899.30;1627406;86;22683;-80
2021/11/14 10:18:20;;;;;;;;;;;;;;;7.12;94.49;100902.10;1624560;86;20207;-80
2021/11/14 10:20:46;;;;;;;;;;;;;;;7.10;93.91;100898.73;1625905;88;20476;-78
2021/11/14 10:23:14;;;;;;;;;;;;;;;6.95;94.56;100903.36;1624946;86;20250;-79
2021/11/14 10:25:42;;;;;;;;;;;;;;;6.98;94.57;100897.87;1627787;86;20729;-81
2021/11/14 10:28:08;;;;;;;;;;;;;;;6.92;94.61;100903.59;1622461;88;21151;-80
2021/11/14 10:30:36;;;;;;;;;;;;;;;6.93;95.25;100910.48;1626140;86;20144;-78
2021/11/14 10:33:03;;;;;;;;;;;;;;;7.03;94.49;100899.67;1626740;86;20099;-76
2021/11/14 10:35:29;;;;;;;;;;;;;;;7.05;93.95;100903.02;1629789;86;20128;-77
2021/11/14 10:38:05;;;;;;;;;;;;;;;7.09;94.26;100907.09;1624765;88;20217;-77
2021/11/14 10:40:33;;;;;;;;;;;;;;;7.05;94.47;100904.33;1626322;86;21206;-78
2021/11/14 10:43:00;;;;;;;;;;;;;;;7.06;94.62;100899.94;1621055;86;20171;-78
2021/11/14 10:45:26;;;;;;;;;;;;;;;7.28;94.05;100904.41;1629041;86;20206;-78
2021/11/14 10:47:59;;;;;;;;;;;;;;;7.24;93.36;100905.58;1624323;86;38196;-79
2021/11/14 10:50:28;;;;;;;;;;;;;;;7.18;93.32;100905.09;1628588;86;20538;-77
2021/11/14 10:52:56;;;;;;;;;;;;;;;7.12;94.02;100900.30;1628608;86;20294;-76
2021/11/14 10:55:23;;;;;;;;;;;;;;;7.23;93.82;100896.04;1625349;86;20592;-77
2021/11/14 10:57:49;;;;;;;;;;;;;;;7.14;93.23;100903.64;1624641;86;20227;-78
2021/11/14 11:00:16;;;;;;;;;;;;;;;7.25;93.42;100908.09;1621918;87;20155;-77
2021/11/14 11:02:42;;;;;;;;;;;;;;;7.33;93.20;100910.99;1621925;86;20210;-76
2021/11/14 11:05:09;;;;;;;;;;;;;;;7.46;92.64;100913.52;1620199;88;21845;-81
2021/11/14 11:07:35;;;;;;;;;;;;;;;7.36;92.39;100913.39;1623172;87;20509;-77
2021/11/14 11:10:01;;;;;;;;;;;;;;;7.28;92.23;100910.97;1620193;87;20193;-77
2021/11/14 11:12:27;;;;;;;;;;;;;;;7.30;91.65;100906.42;1608648;87;20740;-79
2021/11/14 11:14:58;;;;;;;;;;;;;;;7.31;91.34;100912.05;1609133;87;20195;-78
2021/11/14 11:17:25;;;;;;;;;;;;;;;7.34;91.77;100913.13;1607623;88;21145;-77
2021/11/14 11:19:51;;;;;;;;;;;;;;;7.36;91.59;100910.77;1625117;87;20162;-79
2021/11/14 11:22:17;;;;;;;;;;;;;;;7.42;91.16;100907.30;1607012;88;20182;-79
2021/11/14 11:24:53;;;;;;;;;;;;;;;7.34;90.83;100910.02;1604316;88;20411;-79
2021/11/14 11:27:19;;;;;;;;;;;;;;;7.25;91.58;100908.09;1598767;88;20110;-78
2021/11/14 11:29:44;;;;;;;;;;;;;;;7.42;91.50;100917.32;1609026;88;21184;-80
2021/11/14 11:32:11;;;;;;;;;;;;;;;7.41;90.76;100920.06;1609108;87;20150;-79
2021/11/14 11:34:38;;;;;;;;;;;;;;;7.51;90.63;100923.19;1625075;86;20170;-78
2021/11/14 11:37:04;;;;;;;;;;;;;;;7.55;90.20;100918.07;1623888;86;20190;-78
2021/11/14 11:39:30;;;;;;;;;;;;;;;7.55;89.76;100927.27;1598520;88;20255;-77
2021/11/14 11:41:56;;;;;;;;;;;;;;;7.62;89.47;100922.38;1601642;88;22013;-78
2021/11/14 11:44:23;;;;;;;;;;;;;;;7.57;89.03;100923.21;1597234;88;20624;-77
2021/11/14 11:46:50;;;;;;;;;;;;;;;7.60;88.24;100926.06;1599792;88;20312;-77
2021/11/14 11:49:20;;;;;;;;;;;;;;;7.48;88.42;100937.05;1599484;89;20236;-78
2021/11/14 11:51:49;;;;;;;;;;;;;;;7.45;87.81;100934.66;1595145;89;20465;-79
2021/11/14 11:54:19;;;;;;;;;;;;;;;7.36;87.82;100933.55;1596942;88;21203;-78
2021/11/14 11:56:47;;;;;;;;;;;;;;;7.42;88.14;100939.66;1599471;88;20167;-78
2021/11/14 11:59:20;;;;;;;;;;;;;;;7.48;87.84;100940.50;1593862;88;20184;-78
2021/11/14 12:01:55;;;;;;;;;;;;;;;7.43;88.35;100941.34;1590789;89;20244;-78
2021/11/14 12:04:27;;;;;;;;;;;;;;;7.57;88.16;100946.87;1612174;87;20213;-78
2021/11/14 12:06:58;;;;;;;;;;;;;;;7.46;87.29;100945.05;1610488;87;21911;-79
2021/11/14 12:09:23;;;;;;;;;;;;;;;7.43;88.36;100952.34;1604892;87;20174;-80
2021/11/14 12:11:49;;;;;;;;;;;;;;;7.50;88.01;100953.53;1615780;87;20175;-76
2021/11/14 12:14:32;;;;;;;;;;;;;;;7.62;88.07;100960.97;1611749;88;20147;-77
2021/11/14 12:17:05;;;;;;;;;;;;;;;7.55;88.14;100964.06;1614245;87;20192;-80
2021/11/14 12:19:37;;;;;;;;;;;;;;;7.46;88.62;100962.13;1615740;88;21289;-78
2021/11/14 12:22:08;;;;;;;;;;;;;;;7.30;89.73;100972.11;1607101;88;20151;-77
2021/11/14 12:24:55;;;;;;;;;;;;;;;7.21;90.42;100968.85;1614833;87;20333;-78
2021/11/14 12:27:24;;;;;;;;;;;;;;;7.32;90.68;100971.54;1619923;86;20203;-77
2021/11/14 12:29:58;;;;;;;;;;;;;;;7.29;90.80;100979.65;1617102;86;20155;-78
2021/11/14 12:32:30;;;;;;;;;;;;;;;7.19;91.03;100975.08;1631480;87;21104;-78
2021/11/14 12:34:56;;;;;;;;;;;;;;;7.29;91.27;100977.02;1629635;87;20134;-77
2021/11/14 12:37:22;;;;;;;;;;;;;;;7.33;91.27;100981.08;1627516;86;20630;-78
2021/11/14 12:39:47;;;;;;;;;;;;;;;7.32;91.34;100983.36;1630550;86;20102;-77
2021/11/14 12:42:16;;;;;;;;;;;;;;;7.33;91.03;100986.33;1629796;86;20289;-77
2021/11/14 12:44:49;;;;;;;;;;;;;;;7.43;90.25;100984.70;1627642;88;21116;-76